Time,TemperatureF,DewpointF,PressureIn,WindDirection,WindDirectionDegrees,WindSpeedMPH,WindSpeedGustMPH,Humidity,HourlyPrecipIn,Conditions,Clouds,dailyrainin,SolarRadiationWatts/m^2,SoftwareType,DateUTC
2013-10-22 00:25:00,44.0,-99.9,-100.00,NE,55,0.0,1.0,-999,-99.99,,,-99.99,0.000000,,2013-10-22 04:25:00,
2013-10-22 00:55:00,43.0,-99.9,-100.00,North,-999,0.0,0.0,-999,-99.99,,,-99.99,0.000000,,2013-10-22 04:55:00,
2013-10-22 01:23:00,43.0,-99.9,-100.00,North,-999,0.0,0.0,-999,-99.99,,,-99.99,0.000000,,2013-10-22 05:23:00,
2013-10-22 01:53:00,43.0,-99.9,-100.00,North,-999,0.0,1.0,-999,-99.99,,,-99.99,0.000000,,2013-10-22 05:53:00,
2013-10-22 02:22:00,42.0,-99.9,-100.00,NNE,18,0.0,1.0,-999,-99.99,,,-99.99,0.000000,,2013-10-22 06:22:00,
2013-10-22 02:54:00,42.0,-99.9,-100.00,East,79,0.0,1.0,-999,-99.99,,,-99.99,0.000000,,2013-10-22 06:54:00,
2013-10-22 03:23:00,44.0,-99.9,-100.00,North,-999,0.0,0.0,-999,-99.99,,,-99.99,0.200000,,2013-10-22 07:23:00,
2013-10-22 03:52:00,45.0,-99.9,-100.00,North,-999,0.0,1.0,-999,-99.99,,,-99.99,0.000000,,2013-10-22 07:52:00,
2013-10-22 04:22:00,45.0,-99.9,-100.00,South,182,1.0,3.0,-999,-99.99,,,-99.99,0.000000,,2013-10-22 08:22:00,
2013-10-22 04:52:00,46.0,-99.9,-100.00,North,-999,0.0,0.0,-999,-99.99,,,-99.99,0.000000,,2013-10-22 08:52:00,
2013-10-22 05:22:00,48.0,-99.9,-100.00,West,275,3.0,7.0,-999,-99.99,,,-99.99,0.000000,,2013-10-22 09:22:00,
2013-10-22 05:54:00,50.0,-99.9,-100.00,WNW,282,2.0,4.0,-999,-99.99,,,-99.99,0.000000,,2013-10-22 09:54:00,
2013-10-22 06:23:00,49.0,-99.9,-100.00,NW,311,3.0,10.0,-999,-99.99,,,-99.99,0.000000,,2013-10-22 10:23:00,
2013-10-22 07:22:00,48.0,48.0,-100.00,NNE,13,2.0,3.0,100,-99.99,,,-99.99,0.000000,,2013-10-22 11:22:00,
2013-10-22 07:53:00,48.0,48.0,-100.00,NNW,331,2.0,3.0,100,-99.99,,,-99.99,0.200000,,2013-10-22 11:53:00,
2013-10-22 08:52:00,46.0,46.0,-100.00,WNW,297,3.0,6.0,100,-99.99,,,-99.99,8.500000,,2013-10-22 12:52:00,
2013-10-22 09:22:00,45.0,-99.9,-100.00,NW,324,3.0,7.0,-999,-99.99,,,-99.99,9.300000,,2013-10-22 13:22:00,
2013-10-22 09:53:00,43.0,43.0,-100.00,North,7,1.0,2.0,100,-99.99,,,-99.99,41.799999,,2013-10-22 13:53:00,
2013-10-22 10:21:00,43.0,43.0,-100.00,North,9,2.0,3.0,100,-99.99,,,-99.99,43.799999,,2013-10-22 14:21:00,
2013-10-22 10:52:00,43.0,43.0,-100.00,NNE,32,1.0,3.0,98,-99.99,,,-99.99,77.000000,,2013-10-22 14:52:00,
2013-10-22 11:22:00,44.0,42.0,-100.00,NNW,334,2.0,5.0,95,-99.99,,,-99.99,205.100006,,2013-10-22 15:22:00,
2013-10-22 11:33:00,44.0,42.0,-100.00,NNW,334,2.0,5.0,95,-99.99,,,-99.99,205.100006,,2013-10-22 15:33:00,
2013-10-22 11:43:00,44.0,42.0,-100.00,NNW,334,2.0,5.0,95,-99.99,,,-99.99,205.100006,,2013-10-22 15:43:00,
2013-10-22 11:54:00,44.0,42.0,-100.00,NNW,334,2.0,5.0,95,-99.99,,,-99.99,205.100006,,2013-10-22 15:54:00,
2013-10-22 12:00:00,45.0,35.0,-100.00,NNE,33,3.0,5.0,67,-99.99,,,-99.99,378.399994,,2013-10-22 16:00:00,
2013-10-22 12:23:00,45.0,35.0,-100.00,NNE,33,3.0,5.0,67,-99.99,,,-99.99,378.399994,,2013-10-22 16:23:00,
2013-10-22 12:33:00,45.0,35.0,-100.00,NNE,33,3.0,5.0,67,-99.99,,,-99.99,378.399994,,2013-10-22 16:33:00,
2013-10-22 12:43:00,45.0,35.0,-100.00,NNE,33,3.0,5.0,67,-99.99,,,-99.99,378.399994,,2013-10-22 16:43:00,
2013-10-22 12:53:00,45.0,35.0,-100.00,NNE,33,3.0,5.0,67,-99.99,,,-99.99,378.399994,,2013-10-22 16:53:00,
2013-10-22 14:22:00,49.0,36.0,-100.00,SSE,148,3.0,6.0,61,-99.99,,,-99.99,340.899994,,2013-10-22 18:22:00,
2013-10-22 14:52:00,50.0,35.0,-100.00,East,97,2.0,5.0,54,-99.99,,,-99.99,662.700012,,2013-10-22 18:52:00,
2013-10-22 15:22:00,52.0,36.0,-100.00,SSE,160,2.0,5.0,55,-99.99,,,-99.99,638.299988,,2013-10-22 19:22:00,
2013-10-22 15:53:00,53.0,36.0,-100.00,SE,129,3.0,4.0,52,-99.99,,,-99.99,564.400024,,2013-10-22 19:53:00,
2013-10-22 16:22:00,54.0,35.0,-100.00,SE,132,2.0,4.0,48,-99.99,,,-99.99,488.799988,,2013-10-22 20:22:00,
2013-10-22 16:52:00,54.0,36.0,-100.00,East,100,2.0,3.0,49,-99.99,,,-99.99,405.899994,,2013-10-22 20:52:00,
2013-10-22 17:23:00,54.0,35.0,-100.00,SE,128,3.0,5.0,47,-99.99,,,-99.99,313.500000,,2013-10-22 21:23:00,
2013-10-22 17:54:00,54.0,35.0,-100.00,SE,139,2.0,4.0,48,-99.99,,,-99.99,216.899994,,2013-10-22 21:54:00,
2013-10-22 18:24:00,52.0,41.0,-100.00,SE,137,3.0,4.0,65,-99.99,,,-99.99,113.599998,,2013-10-22 22:24:00,
2013-10-22 18:54:00,48.0,42.0,-100.00,SSW,201,2.0,3.0,79,-99.99,,,-99.99,14.600000,,2013-10-22 22:54:00,
2013-10-22 19:23:00,45.0,42.0,-100.00,SSW,198,2.0,4.0,90,-99.99,,,-99.99,1.200000,,2013-10-22 23:23:00,
2013-10-22 19:53:00,44.0,43.0,-100.00,North,-999,0.0,0.0,95,-99.99,,,-99.99,0.000000,,2013-10-22 23:53:00,
2013-10-22 20:22:00,42.0,42.0,-100.00,SW,236,0.0,1.0,100,-99.99,,,-99.99,0.000000,,2013-10-23 00:22:00,
2013-10-22 20:52:00,41.0,41.0,-100.00,North,-999,0.0,1.0,100,-99.99,,,-99.99,0.200000,,2013-10-23 00:52:00,
2013-10-22 21:23:00,40.0,-99.9,-100.00,WNW,296,1.0,2.0,-999,-99.99,,,-99.99,0.200000,,2013-10-23 01:23:00,
2013-10-22 21:53:00,40.0,-99.9,-100.00,North,-999,0.0,0.0,-999,-99.99,,,-99.99,0.000000,,2013-10-23 01:53:00,
2013-10-22 22:22:00,39.0,-99.9,-100.00,WNW,301,2.0,2.0,-999,-99.99,,,-99.99,0.000000,,2013-10-23 02:22:00,
2013-10-22 22:54:00,40.0,-99.9,-100.00,North,-999,0.0,0.0,-999,-99.99,,,-99.99,0.200000,,2013-10-23 02:54:00,
2013-10-22 23:22:00,39.0,-99.9,-100.00,WSW,238,0.0,1.0,-999,-99.99,,,-99.99,0.200000,,2013-10-23 03:22:00,
2013-10-22 23:55:00,38.0,-99.9,-100.00,North,-999,0.0,0.0,-999,-99.99,,,-99.99,0.000000,,2013-10-23 03:55:00,